sensor_id;sensor_type;location;lat;lon;timestamp;temperature;humidity
285;DHT22;127;48.770;9.212;2023-03-19T00:01:07;11.60;99.90
285;DHT22;127;48.770;9.212;2023-03-19T00:03:36;11.70;99.90
285;DHT22;127;48.770;9.212;2023-03-19T00:06:05;11.80;99.90
285;DHT22;127;48.770;9.212;2023-03-19T00:08:34;11.80;99.90
285;DHT22;127;48.770;9.212;2023-03-19T00:11:10;11.90;99.90
285;DHT22;127;48.770;9.212;2023-03-19T00:13:39;11.90;99.90
285;DHT22;127;48.770;9.212;2023-03-19T00:16:08;11.90;99.90
285;DHT22;127;48.770;9.212;2023-03-19T00:18:37;11.90;99.90
285;DHT22;127;48.770;9.212;2023-03-19T00:21:05;11.80;99.90
285;DHT22;127;48.770;9.212;2023-03-19T00:23:34;11.90;99.90
285;DHT22;127;48.770;9.212;2023-03-19T00:26:04;11.80;99.90
285;DHT22;127;48.770;9.212;2023-03-19T00:28:35;11.80;99.90
285;DHT22;127;48.770;9.212;2023-03-19T00:31:08;11.80;99.90
285;DHT22;127;48.770;9.212;2023-03-19T00:33:38;11.70;99.90
285;DHT22;127;48.770;9.212;2023-03-19T00:36:08;11.70;99.90
285;DHT22;127;48.770;9.212;2023-03-19T00:38:38;11.70;99.90
285;DHT22;127;48.770;9.212;2023-03-19T00:41:06;11.70;99.90
285;DHT22;127;48.770;9.212;2023-03-19T00:43:38;11.60;99.90
285;DHT22;127;48.770;9.212;2023-03-19T00:46:06;11.60;99.90
285;DHT22;127;48.770;9.212;2023-03-19T00:48:35;11.50;99.90
285;DHT22;127;48.770;9.212;2023-03-19T00:51:06;11.50;99.90
285;DHT22;127;48.770;9.212;2023-03-19T00:53:36;11.50;99.90
285;DHT22;127;48.770;9.212;2023-03-19T00:56:07;11.50;99.90
285;DHT22;127;48.770;9.212;2023-03-19T00:58:39;11.40;99.90
285;DHT22;127;48.770;9.212;2023-03-19T01:01:08;11.20;99.90
285;DHT22;127;48.770;9.212;2023-03-19T01:03:37;11.10;99.90
285;DHT22;127;48.770;9.212;2023-03-19T01:06:06;11.10;99.90
285;DHT22;127;48.770;9.212;2023-03-19T01:08:36;11.10;99.90
285;DHT22;127;48.770;9.212;2023-03-19T01:11:07;11.10;99.90
285;DHT22;127;48.770;9.212;2023-03-19T01:13:39;11.20;99.90
285;DHT22;127;48.770;9.212;2023-03-19T01:16:10;11.30;99.90
285;DHT22;127;48.770;9.212;2023-03-19T01:18:38;11.30;99.90
285;DHT22;127;48.770;9.212;2023-03-19T01:21:07;11.30;99.90
285;DHT22;127;48.770;9.212;2023-03-19T01:23:35;11.40;99.90
285;DHT22;127;48.770;9.212;2023-03-19T01:26:04;11.40;99.90
285;DHT22;127;48.770;9.212;2023-03-19T01:28:33;11.40;99.90
285;DHT22;127;48.770;9.212;2023-03-19T01:31:05;11.50;99.90
285;DHT22;127;48.770;9.212;2023-03-19T01:33:34;11.60;99.90
285;DHT22;127;48.770;9.212;2023-03-19T01:36:03;11.50;99.90
285;DHT22;127;48.770;9.212;2023-03-19T01:38:33;11.50;99.90
285;DHT22;127;48.770;9.212;2023-03-19T01:41:01;11.50;99.90
285;DHT22;127;48.770;9.212;2023-03-19T01:43:31;11.50;99.90
285;DHT22;127;48.770;9.212;2023-03-19T01:46:05;11.60;99.90
285;DHT22;127;48.770;9.212;2023-03-19T01:48:38;11.70;99.90
285;DHT22;127;48.770;9.212;2023-03-19T01:51:09;11.80;99.90
285;DHT22;127;48.770;9.212;2023-03-19T01:53:42;11.90;99.90
285;DHT22;127;48.770;9.212;2023-03-19T01:56:14;11.90;99.90
285;DHT22;127;48.770;9.212;2023-03-19T01:58:45;12.00;99.90
285;DHT22;127;48.770;9.212;2023-03-19T02:01:17;12.10;99.90
285;DHT22;127;48.770;9.212;2023-03-19T02:03:46;12.10;99.90
285;DHT22;127;48.770;9.212;2023-03-19T02:09:53;12.10;99.90
285;DHT22;127;48.770;9.212;2023-03-19T02:12:22;12.00;99.90
285;DHT22;127;48.770;9.212;2023-03-19T02:14:51;12.00;99.90
285;DHT22;127;48.770;9.212;2023-03-19T02:17:22;11.90;99.90
285;DHT22;127;48.770;9.212;2023-03-19T02:19:56;11.90;99.90
285;DHT22;127;48.770;9.212;2023-03-19T02:22:28;11.80;99.90
285;DHT22;127;48.770;9.212;2023-03-19T02:25:00;11.70;99.90
285;DHT22;127;48.770;9.212;2023-03-19T02:27:32;11.70;99.90
285;DHT22;127;48.770;9.212;2023-03-19T02:30:17;11.60;99.90
285;DHT22;127;48.770;9.212;2023-03-19T02:32:46;11.20;99.90
285;DHT22;127;48.770;9.212;2023-03-19T02:35:14;11.00;99.90
285;DHT22;127;48.770;9.212;2023-03-19T02:37:43;10.80;99.90
285;DHT22;127;48.770;9.212;2023-03-19T02:40:16;10.70;99.90
285;DHT22;127;48.770;9.212;2023-03-19T02:42:48;10.50;99.90
285;DHT22;127;48.770;9.212;2023-03-19T02:45:17;10.40;99.90
285;DHT22;127;48.770;9.212;2023-03-19T02:47:46;10.30;99.90
285;DHT22;127;48.770;9.212;2023-03-19T02:50:15;10.30;99.90
285;DHT22;127;48.770;9.212;2023-03-19T02:52:44;10.30;99.90
285;DHT22;127;48.770;9.212;2023-03-19T02:55:12;10.20;99.90
285;DHT22;127;48.770;9.212;2023-03-19T02:57:43;10.10;99.90
285;DHT22;127;48.770;9.212;2023-03-19T03:00:18;10.10;99.90
285;DHT22;127;48.770;9.212;2023-03-19T03:02:47;10.10;99.90
285;DHT22;127;48.770;9.212;2023-03-19T03:05:15;10.10;99.90
285;DHT22;127;48.770;9.212;2023-03-19T03:07:45;10.40;99.90
285;DHT22;127;48.770;9.212;2023-03-19T03:10:14;10.60;99.90
285;DHT22;127;48.770;9.212;2023-03-19T03:12:43;10.60;99.90
285;DHT22;127;48.770;9.212;2023-03-19T03:15:12;10.50;99.90
285;DHT22;127;48.770;9.212;2023-03-19T03:17:44;10.40;99.90
285;DHT22;127;48.770;9.212;2023-03-19T03:20:15;10.30;99.90
285;DHT22;127;48.770;9.212;2023-03-19T03:22:45;10.20;99.90
285;DHT22;127;48.770;9.212;2023-03-19T03:25:14;10.10;99.90
285;DHT22;127;48.770;9.212;2023-03-19T03:27:42;10.10;99.90
285;DHT22;127;48.770;9.212;2023-03-19T03:30:12;10.00;99.90
285;DHT22;127;48.770;9.212;2023-03-19T03:32:44;10.10;99.90
285;DHT22;127;48.770;9.212;2023-03-19T03:35:12;10.00;99.90
285;DHT22;127;48.770;9.212;2023-03-19T03:37:46;9.90;99.90
285;DHT22;127;48.770;9.212;2023-03-19T03:40:15;9.70;99.90
285;DHT22;127;48.770;9.212;2023-03-19T03:42:44;9.70;99.90
285;DHT22;127;48.770;9.212;2023-03-19T03:45:13;9.60;99.90
285;DHT22;127;48.770;9.212;2023-03-19T03:47:44;9.50;99.90
285;DHT22;127;48.770;9.212;2023-03-19T03:50:13;9.50;99.90
285;DHT22;127;48.770;9.212;2023-03-19T03:52:42;9.50;99.90
285;DHT22;127;48.770;9.212;2023-03-19T03:55:10;9.60;99.90
285;DHT22;127;48.770;9.212;2023-03-19T03:57:39;9.60;99.90
285;DHT22;127;48.770;9.212;2023-03-19T04:00:09;9.70;99.90
285;DHT22;127;48.770;9.212;2023-03-19T04:02:39;9.70;99.90
285;DHT22;127;48.770;9.212;2023-03-19T04:05:10;9.60;99.90
285;DHT22;127;48.770;9.212;2023-03-19T04:07:39;9.60;99.90
285;DHT22;127;48.770;9.212;2023-03-19T04:10:08;9.70;99.90
285;DHT22;127;48.770;9.212;2023-03-19T04:12:38;9.70;99.90
285;DHT22;127;48.770;9.212;2023-03-19T04:15:08;9.70;99.90
285;DHT22;127;48.770;9.212;2023-03-19T04:17:37;9.70;99.90
285;DHT22;127;48.770;9.212;2023-03-19T04:20:10;9.70;99.90
285;DHT22;127;48.770;9.212;2023-03-19T04:22:40;9.70;99.90
285;DHT22;127;48.770;9.212;2023-03-19T04:25:09;9.80;99.90
285;DHT22;127;48.770;9.212;2023-03-19T04:27:38;9.90;99.90
285;DHT22;127;48.770;9.212;2023-03-19T04:30:08;9.90;99.90
285;DHT22;127;48.770;9.212;2023-03-19T04:32:37;9.90;99.90
285;DHT22;127;48.770;9.212;2023-03-19T04:35:06;10.00;99.90
285;DHT22;127;48.770;9.212;2023-03-19T04:37:38;9.90;99.90
285;DHT22;127;48.770;9.212;2023-03-19T04:40:09;9.90;99.90
285;DHT22;127;48.770;9.212;2023-03-19T04:42:38;9.90;99.90
285;DHT22;127;48.770;9.212;2023-03-19T04:45:09;9.90;99.90
285;DHT22;127;48.770;9.212;2023-03-19T04:47:38;9.90;99.90
285;DHT22;127;48.770;9.212;2023-03-19T04:50:08;9.90;99.90
285;DHT22;127;48.770;9.212;2023-03-19T04:52:40;9.90;99.90
285;DHT22;127;48.770;9.212;2023-03-19T04:55:09;9.90;99.90
285;DHT22;127;48.770;9.212;2023-03-19T04:57:38;9.80;99.90
285;DHT22;127;48.770;9.212;2023-03-19T05:00:07;9.80;99.90
285;DHT22;127;48.770;9.212;2023-03-19T05:02:36;9.80;99.90
285;DHT22;127;48.770;9.212;2023-03-19T05:05:05;9.90;99.90
285;DHT22;127;48.770;9.212;2023-03-19T05:07:34;9.90;99.90
285;DHT22;127;48.770;9.212;2023-03-19T05:10:07;9.70;99.90
285;DHT22;127;48.770;9.212;2023-03-19T05:12:36;9.70;99.90
285;DHT22;127;48.770;9.212;2023-03-19T05:15:06;9.80;99.90
285;DHT22;127;48.770;9.212;2023-03-19T05:17:34;9.80;99.90
285;DHT22;127;48.770;9.212;2023-03-19T05:20:04;9.70;99.90
285;DHT22;127;48.770;9.212;2023-03-19T05:22:34;9.80;99.90
285;DHT22;127;48.770;9.212;2023-03-19T05:25:05;9.70;99.90
285;DHT22;127;48.770;9.212;2023-03-19T05:27:34;9.70;99.90
285;DHT22;127;48.770;9.212;2023-03-19T05:30:04;9.60;99.90
285;DHT22;127;48.770;9.212;2023-03-19T05:32:33;9.50;99.90
285;DHT22;127;48.770;9.212;2023-03-19T05:35:03;9.50;99.90
285;DHT22;127;48.770;9.212;2023-03-19T05:37:32;9.50;99.90
285;DHT22;127;48.770;9.212;2023-03-19T05:40:01;9.40;99.90
285;DHT22;127;48.770;9.212;2023-03-19T05:42:32;9.40;99.90
285;DHT22;127;48.770;9.212;2023-03-19T05:45:01;9.30;99.90
285;DHT22;127;48.770;9.212;2023-03-19T05:47:30;9.20;99.90
285;DHT22;127;48.770;9.212;2023-03-19T05:49:59;9.20;99.90
285;DHT22;127;48.770;9.212;2023-03-19T05:52:28;9.30;99.90
285;DHT22;127;48.770;9.212;2023-03-19T05:54:56;9.20;99.90
285;DHT22;127;48.770;9.212;2023-03-19T05:57:25;9.40;99.90
285;DHT22;127;48.770;9.212;2023-03-19T05:59:56;9.60;99.90
285;DHT22;127;48.770;9.212;2023-03-19T06:02:25;9.70;99.90
285;DHT22;127;48.770;9.212;2023-03-19T06:04:53;9.70;99.90
285;DHT22;127;48.770;9.212;2023-03-19T06:07:22;9.80;99.90
285;DHT22;127;48.770;9.212;2023-03-19T06:09:51;9.90;99.90
285;DHT22;127;48.770;9.212;2023-03-19T06:12:20;9.90;99.90
285;DHT22;127;48.770;9.212;2023-03-19T06:14:49;10.10;99.90
285;DHT22;127;48.770;9.212;2023-03-19T06:17:20;10.10;99.90
285;DHT22;127;48.770;9.212;2023-03-19T06:19:49;10.30;99.90
285;DHT22;127;48.770;9.212;2023-03-19T06:22:18;10.60;99.90
285;DHT22;127;48.770;9.212;2023-03-19T06:24:46;10.80;99.90
285;DHT22;127;48.770;9.212;2023-03-19T06:27:15;10.90;99.90
285;DHT22;127;48.770;9.212;2023-03-19T06:29:43;11.00;99.90
285;DHT22;127;48.770;9.212;2023-03-19T06:32:12;11.10;99.90
285;DHT22;127;48.770;9.212;2023-03-19T06:34:43;11.20;99.90
285;DHT22;127;48.770;9.212;2023-03-19T06:37:12;11.30;99.90
285;DHT22;127;48.770;9.212;2023-03-19T06:39:41;11.30;99.90
285;DHT22;127;48.770;9.212;2023-03-19T06:42:10;11.40;99.90
285;DHT22;127;48.770;9.212;2023-03-19T06:44:38;11.40;99.90
285;DHT22;127;48.770;9.212;2023-03-19T06:47:07;11.50;99.90
285;DHT22;127;48.770;9.212;2023-03-19T06:49:36;11.50;99.90
285;DHT22;127;48.770;9.212;2023-03-19T06:52:07;11.50;99.90
285;DHT22;127;48.770;9.212;2023-03-19T06:54:36;11.50;99.90
285;DHT22;127;48.770;9.212;2023-03-19T06:57:05;11.40;99.90
285;DHT22;127;48.770;9.212;2023-03-19T06:59:34;11.40;99.90
285;DHT22;127;48.770;9.212;2023-03-19T07:02:02;11.30;99.90
285;DHT22;127;48.770;9.212;2023-03-19T07:04:31;11.20;99.90
285;DHT22;127;48.770;9.212;2023-03-19T07:07:00;11.10;99.90
285;DHT22;127;48.770;9.212;2023-03-19T07:09:33;11.10;99.90
285;DHT22;127;48.770;9.212;2023-03-19T07:12:01;10.90;99.90
285;DHT22;127;48.770;9.212;2023-03-19T07:14:30;11.00;99.90
285;DHT22;127;48.770;9.212;2023-03-19T07:16:59;11.10;99.90
285;DHT22;127;48.770;9.212;2023-03-19T07:19:27;11.00;99.90
285;DHT22;127;48.770;9.212;2023-03-19T07:21:56;10.90;99.90
285;DHT22;127;48.770;9.212;2023-03-19T07:24:25;11.00;99.90
285;DHT22;127;48.770;9.212;2023-03-19T07:26:56;11.10;99.90
285;DHT22;127;48.770;9.212;2023-03-19T07:29:24;11.00;99.90
285;DHT22;127;48.770;9.212;2023-03-19T07:31:53;11.10;99.90
285;DHT22;127;48.770;9.212;2023-03-19T07:34:22;11.00;99.90
285;DHT22;127;48.770;9.212;2023-03-19T07:36:51;11.00;99.90
285;DHT22;127;48.770;9.212;2023-03-19T07:39:20;10.90;99.90
285;DHT22;127;48.770;9.212;2023-03-19T07:41:48;11.00;99.90
285;DHT22;127;48.770;9.212;2023-03-19T07:44:20;11.10;99.90
285;DHT22;127;48.770;9.212;2023-03-19T07:46:48;11.10;99.90
285;DHT22;127;48.770;9.212;2023-03-19T07:49:17;11.10;99.90
285;DHT22;127;48.770;9.212;2023-03-19T07:51:45;11.20;99.90
285;DHT22;127;48.770;9.212;2023-03-19T07:54:14;11.10;99.90
285;DHT22;127;48.770;9.212;2023-03-19T07:56:43;11.10;99.90
285;DHT22;127;48.770;9.212;2023-03-19T07:59:11;11.20;99.90
285;DHT22;127;48.770;9.212;2023-03-19T08:01:42;11.30;99.90
285;DHT22;127;48.770;9.212;2023-03-19T08:04:11;11.50;99.90
285;DHT22;127;48.770;9.212;2023-03-19T08:06:40;11.50;99.90
285;DHT22;127;48.770;9.212;2023-03-19T08:09:08;11.40;99.90
285;DHT22;127;48.770;9.212;2023-03-19T08:11:37;11.40;99.90
285;DHT22;127;48.770;9.212;2023-03-19T08:14:06;11.40;99.90
285;DHT22;127;48.770;9.212;2023-03-19T08:16:35;11.60;99.90
285;DHT22;127;48.770;9.212;2023-03-19T08:19:06;11.60;99.90
285;DHT22;127;48.770;9.212;2023-03-19T08:21:34;11.60;99.90
285;DHT22;127;48.770;9.212;2023-03-19T08:24:03;11.60;99.90
285;DHT22;127;48.770;9.212;2023-03-19T08:26:32;11.60;99.90
285;DHT22;127;48.770;9.212;2023-03-19T08:29:02;11.70;99.90
285;DHT22;127;48.770;9.212;2023-03-19T08:31:31;11.80;99.90
285;DHT22;127;48.770;9.212;2023-03-19T08:34:00;12.10;99.90
285;DHT22;127;48.770;9.212;2023-03-19T08:36:31;12.20;99.90
285;DHT22;127;48.770;9.212;2023-03-19T08:39:00;12.20;99.90
285;DHT22;127;48.770;9.212;2023-03-19T08:41:29;12.40;99.90
285;DHT22;127;48.770;9.212;2023-03-19T08:43:58;12.40;99.90
285;DHT22;127;48.770;9.212;2023-03-19T08:46:26;12.70;99.90
285;DHT22;127;48.770;9.212;2023-03-19T08:48:55;12.90;99.90
285;DHT22;127;48.770;9.212;2023-03-19T08:51:23;13.00;99.90
285;DHT22;127;48.770;9.212;2023-03-19T08:53:58;12.80;99.90
285;DHT22;127;48.770;9.212;2023-03-19T08:56:26;12.90;99.90
285;DHT22;127;48.770;9.212;2023-03-19T08:58:55;13.00;99.90
285;DHT22;127;48.770;9.212;2023-03-19T09:01:24;13.30;99.90
285;DHT22;127;48.770;9.212;2023-03-19T09:03:52;13.50;99.90
285;DHT22;127;48.770;9.212;2023-03-19T09:06:21;13.40;99.90
285;DHT22;127;48.770;9.212;2023-03-19T09:08:50;13.40;99.90
285;DHT22;127;48.770;9.212;2023-03-19T09:11:21;13.30;99.90
285;DHT22;127;48.770;9.212;2023-03-19T09:13:51;13.50;99.90
285;DHT22;127;48.770;9.212;2023-03-19T09:16:20;14.00;99.90
285;DHT22;127;48.770;9.212;2023-03-19T09:18:48;14.30;99.90
285;DHT22;127;48.770;9.212;2023-03-19T09:21:17;15.00;99.90
285;DHT22;127;48.770;9.212;2023-03-19T09:23:46;15.70;99.90
285;DHT22;127;48.770;9.212;2023-03-19T09:26:15;16.50;99.90
285;DHT22;127;48.770;9.212;2023-03-19T09:28:46;16.50;99.90
285;DHT22;127;48.770;9.212;2023-03-19T09:31:14;16.60;99.90
285;DHT22;127;48.770;9.212;2023-03-19T09:33:43;17.50;99.90
285;DHT22;127;48.770;9.212;2023-03-19T09:36:12;18.50;99.90
285;DHT22;127;48.770;9.212;2023-03-19T09:38:40;18.90;99.90
285;DHT22;127;48.770;9.212;2023-03-19T09:41:12;18.80;99.90
285;DHT22;127;48.770;9.212;2023-03-19T09:43:58;17.90;99.90
285;DHT22;127;48.770;9.212;2023-03-19T09:46:34;17.50;99.90
285;DHT22;127;48.770;9.212;2023-03-19T09:49:11;18.10;99.90
285;DHT22;127;48.770;9.212;2023-03-19T09:51:45;18.10;99.90
285;DHT22;127;48.770;9.212;2023-03-19T09:54:32;17.90;99.90
285;DHT22;127;48.770;9.212;2023-03-19T09:57:01;19.60;99.90
285;DHT22;127;48.770;9.212;2023-03-19T09:59:32;22.50;99.90
285;DHT22;127;48.770;9.212;2023-03-19T10:02:18;24.30;99.90
285;DHT22;127;48.770;9.212;2023-03-19T10:05:00;25.30;99.90
285;DHT22;127;48.770;9.212;2023-03-19T10:07:44;26.20;99.90
285;DHT22;127;48.770;9.212;2023-03-19T10:10:25;27.40;99.90
285;DHT22;127;48.770;9.212;2023-03-19T10:13:06;26.30;99.90
285;DHT22;127;48.770;9.212;2023-03-19T10:15:40;26.10;99.90
285;DHT22;127;48.770;9.212;2023-03-19T10:18:14;26.70;99.90
285;DHT22;127;48.770;9.212;2023-03-19T10:20:50;27.40;99.90
285;DHT22;127;48.770;9.212;2023-03-19T10:23:31;27.30;99.90
285;DHT22;127;48.770;9.212;2023-03-19T10:26:03;27.20;99.90
285;DHT22;127;48.770;9.212;2023-03-19T10:28:32;26.70;99.90
285;DHT22;127;48.770;9.212;2023-03-19T10:31:11;26.80;99.90
285;DHT22;127;48.770;9.212;2023-03-19T10:33:43;26.60;99.90
285;DHT22;127;48.770;9.212;2023-03-19T10:36:16;26.60;99.90
285;DHT22;127;48.770;9.212;2023-03-19T10:38:47;26.50;99.90
285;DHT22;127;48.770;9.212;2023-03-19T10:41:22;26.60;99.90
285;DHT22;127;48.770;9.212;2023-03-19T10:43:54;25.30;99.90
285;DHT22;127;48.770;9.212;2023-03-19T10:46:26;24.90;99.90
285;DHT22;127;48.770;9.212;2023-03-19T10:48:56;24.60;99.90
285;DHT22;127;48.770;9.212;2023-03-19T10:51:26;24.00;99.90
285;DHT22;127;48.770;9.212;2023-03-19T10:53:54;24.80;99.90
285;DHT22;127;48.770;9.212;2023-03-19T10:56:24;25.00;99.90
285;DHT22;127;48.770;9.212;2023-03-19T10:58:57;24.90;99.90
285;DHT22;127;48.770;9.212;2023-03-19T11:01:32;25.50;99.90
285;DHT22;127;48.770;9.212;2023-03-19T11:04:10;24.70;99.90
285;DHT22;127;48.770;9.212;2023-03-19T11:06:40;24.30;99.90
285;DHT22;127;48.770;9.212;2023-03-19T11:09:20;23.00;99.90
285;DHT22;127;48.770;9.212;2023-03-19T11:11:52;23.00;99.90
285;DHT22;127;48.770;9.212;2023-03-19T11:14:27;21.50;99.90
285;DHT22;127;48.770;9.212;2023-03-19T11:17:03;22.50;99.90
285;DHT22;127;48.770;9.212;2023-03-19T11:19:39;22.90;99.90
285;DHT22;127;48.770;9.212;2023-03-19T11:22:14;23.10;99.90
285;DHT22;127;48.770;9.212;2023-03-19T11:24:49;23.70;99.90
285;DHT22;127;48.770;9.212;2023-03-19T11:27:26;22.30;99.90
285;DHT22;127;48.770;9.212;2023-03-19T11:29:56;20.60;99.90
285;DHT22;127;48.770;9.212;2023-03-19T11:35:33;21.20;99.90
285;DHT22;127;48.770;9.212;2023-03-19T11:38:09;21.40;99.90
285;DHT22;127;48.770;9.212;2023-03-19T11:40:44;21.70;99.90
285;DHT22;127;48.770;9.212;2023-03-19T11:43:39;22.00;99.90
285;DHT22;127;48.770;9.212;2023-03-19T11:46:25;22.80;99.90
285;DHT22;127;48.770;9.212;2023-03-19T11:49:14;22.40;99.90
285;DHT22;127;48.770;9.212;2023-03-19T11:51:49;23.00;99.90
285;DHT22;127;48.770;9.212;2023-03-19T11:54:30;23.40;99.90
285;DHT22;127;48.770;9.212;2023-03-19T11:57:07;22.60;99.90
285;DHT22;127;48.770;9.212;2023-03-19T11:59:43;21.50;99.90
285;DHT22;127;48.770;9.212;2023-03-19T12:02:36;20.90;99.90
285;DHT22;127;48.770;9.212;2023-03-19T12:05:20;19.80;99.90
285;DHT22;127;48.770;9.212;2023-03-19T12:08:18;19.50;99.90
285;DHT22;127;48.770;9.212;2023-03-19T12:11:00;20.00;99.90
285;DHT22;127;48.770;9.212;2023-03-19T12:13:38;21.30;99.90
285;DHT22;127;48.770;9.212;2023-03-19T12:16:16;22.00;99.90
285;DHT22;127;48.770;9.212;2023-03-19T12:19:12;20.50;99.90
285;DHT22;127;48.770;9.212;2023-03-19T12:21:51;19.70;99.90
285;DHT22;127;48.770;9.212;2023-03-19T12:24:33;19.80;99.90
285;DHT22;127;48.770;9.212;2023-03-19T12:27:16;19.20;99.90
285;DHT22;127;48.770;9.212;2023-03-19T12:29:51;19.50;99.90
285;DHT22;127;48.770;9.212;2023-03-19T12:32:35;19.80;99.90
285;DHT22;127;48.770;9.212;2023-03-19T12:35:12;19.90;99.90
285;DHT22;127;48.770;9.212;2023-03-19T12:37:48;20.00;99.90
285;DHT22;127;48.770;9.212;2023-03-19T12:40:26;20.00;99.90
285;DHT22;127;48.770;9.212;2023-03-19T12:42:57;19.70;99.90
285;DHT22;127;48.770;9.212;2023-03-19T12:45:30;19.80;99.90
285;DHT22;127;48.770;9.212;2023-03-19T12:48:03;19.70;99.90
285;DHT22;127;48.770;9.212;2023-03-19T12:50:36;20.60;99.90
285;DHT22;127;48.770;9.212;2023-03-19T12:53:10;21.50;99.90
285;DHT22;127;48.770;9.212;2023-03-19T12:55:50;21.70;99.90
285;DHT22;127;48.770;9.212;2023-03-19T12:58:24;21.70;99.90
285;DHT22;127;48.770;9.212;2023-03-19T13:00:58;21.80;99.90
285;DHT22;127;48.770;9.212;2023-03-19T13:03:38;21.60;99.90
285;DHT22;127;48.770;9.212;2023-03-19T13:06:15;20.60;99.90
285;DHT22;127;48.770;9.212;2023-03-19T13:08:48;20.10;99.90
285;DHT22;127;48.770;9.212;2023-03-19T13:11:29;19.50;99.90
285;DHT22;127;48.770;9.212;2023-03-19T13:14:05;19.10;99.90
285;DHT22;127;48.770;9.212;2023-03-19T13:16:40;18.50;99.90
285;DHT22;127;48.770;9.212;2023-03-19T13:19:17;17.70;99.90
285;DHT22;127;48.770;9.212;2023-03-19T13:21:50;16.80;99.90
285;DHT22;127;48.770;9.212;2023-03-19T13:24:23;16.00;99.90
285;DHT22;127;48.770;9.212;2023-03-19T13:26:57;15.40;99.90
285;DHT22;127;48.770;9.212;2023-03-19T13:29:27;15.00;99.90
285;DHT22;127;48.770;9.212;2023-03-19T13:32:00;14.60;99.90
285;DHT22;127;48.770;9.212;2023-03-19T13:34:31;14.60;99.90
285;DHT22;127;48.770;9.212;2023-03-19T13:37:05;14.90;99.90
285;DHT22;127;48.770;9.212;2023-03-19T13:39:36;15.20;99.90
285;DHT22;127;48.770;9.212;2023-03-19T13:42:22;15.60;99.90
285;DHT22;127;48.770;9.212;2023-03-19T13:45:03;15.90;99.90
285;DHT22;127;48.770;9.212;2023-03-19T13:47:41;16.10;99.90
285;DHT22;127;48.770;9.212;2023-03-19T13:50:26;16.40;99.90
285;DHT22;127;48.770;9.212;2023-03-19T13:53:17;16.60;99.90
285;DHT22;127;48.770;9.212;2023-03-19T13:55:52;16.70;99.90
285;DHT22;127;48.770;9.212;2023-03-19T13:58:26;16.60;99.90
285;DHT22;127;48.770;9.212;2023-03-19T14:03:56;16.40;99.90
285;DHT22;127;48.770;9.212;2023-03-19T14:06:32;16.40;99.90
285;DHT22;127;48.770;9.212;2023-03-19T14:09:02;16.30;99.90
285;DHT22;127;48.770;9.212;2023-03-19T14:11:34;16.30;99.90
285;DHT22;127;48.770;9.212;2023-03-19T14:14:07;16.40;99.90
285;DHT22;127;48.770;9.212;2023-03-19T14:16:42;16.60;99.90
285;DHT22;127;48.770;9.212;2023-03-19T14:19:17;16.90;99.90
285;DHT22;127;48.770;9.212;2023-03-19T14:22:07;17.10;99.90
285;DHT22;127;48.770;9.212;2023-03-19T14:24:38;17.10;99.90
285;DHT22;127;48.770;9.212;2023-03-19T14:27:13;17.50;99.90
285;DHT22;127;48.770;9.212;2023-03-19T14:29:46;17.60;99.90
285;DHT22;127;48.770;9.212;2023-03-19T14:32:17;17.60;99.90
285;DHT22;127;48.770;9.212;2023-03-19T14:34:47;17.60;99.90
285;DHT22;127;48.770;9.212;2023-03-19T14:37:20;17.60;99.90
285;DHT22;127;48.770;9.212;2023-03-19T14:39:54;17.70;99.90
285;DHT22;127;48.770;9.212;2023-03-19T14:42:29;17.60;99.90
285;DHT22;127;48.770;9.212;2023-03-19T14:45:24;17.30;99.90
285;DHT22;127;48.770;9.212;2023-03-19T14:51:05;16.80;99.90
285;DHT22;127;48.770;9.212;2023-03-19T14:53:39;16.60;99.90
285;DHT22;127;48.770;9.212;2023-03-19T14:56:12;16.40;99.90
285;DHT22;127;48.770;9.212;2023-03-19T14:58:52;16.30;99.90
285;DHT22;127;48.770;9.212;2023-03-19T15:01:24;16.20;99.90
285;DHT22;127;48.770;9.212;2023-03-19T15:03:55;16.10;99.90
285;DHT22;127;48.770;9.212;2023-03-19T15:06:26;16.10;99.90
285;DHT22;127;48.770;9.212;2023-03-19T15:08:58;16.10;99.90
285;DHT22;127;48.770;9.212;2023-03-19T15:14:41;16.10;99.90
285;DHT22;127;48.770;9.212;2023-03-19T15:17:20;15.90;99.90
285;DHT22;127;48.770;9.212;2023-03-19T15:19:51;15.60;99.90
285;DHT22;127;48.770;9.212;2023-03-19T15:22:25;15.70;99.90
285;DHT22;127;48.770;9.212;2023-03-19T15:25:04;15.70;99.90
285;DHT22;127;48.770;9.212;2023-03-19T15:27:33;15.40;99.90
285;DHT22;127;48.770;9.212;2023-03-19T15:30:08;15.50;99.90
285;DHT22;127;48.770;9.212;2023-03-19T15:32:48;15.50;99.90
285;DHT22;127;48.770;9.212;2023-03-19T15:35:17;15.40;99.90
285;DHT22;127;48.770;9.212;2023-03-19T15:37:50;15.20;99.90
285;DHT22;127;48.770;9.212;2023-03-19T15:40:21;15.10;99.90
285;DHT22;127;48.770;9.212;2023-03-19T15:42:52;15.00;99.90
285;DHT22;127;48.770;9.212;2023-03-19T15:45:22;15.00;99.90
285;DHT22;127;48.770;9.212;2023-03-19T15:47:56;14.90;99.90
285;DHT22;127;48.770;9.212;2023-03-19T15:50:28;14.80;99.90
285;DHT22;127;48.770;9.212;2023-03-19T15:53:01;14.70;99.90
285;DHT22;127;48.770;9.212;2023-03-19T15:55:32;14.80;99.90
285;DHT22;127;48.770;9.212;2023-03-19T15:58:06;14.70;99.90
285;DHT22;127;48.770;9.212;2023-03-19T16:00:36;14.60;99.90
285;DHT22;127;48.770;9.212;2023-03-19T16:03:14;14.40;99.90
285;DHT22;127;48.770;9.212;2023-03-19T16:05:44;14.30;99.90
285;DHT22;127;48.770;9.212;2023-03-19T16:08:18;14.20;99.90
285;DHT22;127;48.770;9.212;2023-03-19T16:10:49;14.10;99.90
285;DHT22;127;48.770;9.212;2023-03-19T16:13:26;14.00;99.90
285;DHT22;127;48.770;9.212;2023-03-19T16:16:00;13.60;99.90
285;DHT22;127;48.770;9.212;2023-03-19T16:18:46;13.20;99.90
285;DHT22;127;48.770;9.212;2023-03-19T16:21:19;12.90;99.90
285;DHT22;127;48.770;9.212;2023-03-19T16:23:54;12.40;99.90
285;DHT22;127;48.770;9.212;2023-03-19T16:26:28;12.10;99.90
285;DHT22;127;48.770;9.212;2023-03-19T16:29:02;12.00;99.90
285;DHT22;127;48.770;9.212;2023-03-19T16:31:41;11.80;99.90
285;DHT22;127;48.770;9.212;2023-03-19T16:34:30;11.70;99.90
285;DHT22;127;48.770;9.212;2023-03-19T16:37:01;11.50;99.90
285;DHT22;127;48.770;9.212;2023-03-19T16:39:32;11.30;99.90
285;DHT22;127;48.770;9.212;2023-03-19T16:42:25;11.20;99.90
285;DHT22;127;48.770;9.212;2023-03-19T16:44:54;11.20;99.90
285;DHT22;127;48.770;9.212;2023-03-19T16:47:23;11.10;99.90
285;DHT22;127;48.770;9.212;2023-03-19T16:49:54;11.10;99.90
285;DHT22;127;48.770;9.212;2023-03-19T16:52:23;11.00;99.90
285;DHT22;127;48.770;9.212;2023-03-19T16:54:53;11.00;99.90
285;DHT22;127;48.770;9.212;2023-03-19T16:57:22;10.90;99.90
285;DHT22;127;48.770;9.212;2023-03-19T16:59:51;10.90;99.90
285;DHT22;127;48.770;9.212;2023-03-19T17:02:20;10.70;99.90
285;DHT22;127;48.770;9.212;2023-03-19T17:04:48;10.60;99.90
285;DHT22;127;48.770;9.212;2023-03-19T17:07:20;10.40;1.00
285;DHT22;127;48.770;9.212;2023-03-19T17:09:48;10.20;1.00
285;DHT22;127;48.770;9.212;2023-03-19T17:12:17;10.20;1.00
285;DHT22;127;48.770;9.212;2023-03-19T17:14:48;10.30;1.00
285;DHT22;127;48.770;9.212;2023-03-19T17:17:19;10.30;1.00
285;DHT22;127;48.770;9.212;2023-03-19T17:19:48;10.30;1.00
285;DHT22;127;48.770;9.212;2023-03-19T17:22:19;10.30;1.00
285;DHT22;127;48.770;9.212;2023-03-19T17:24:52;10.30;1.00